createdAt,value
2018-03-31T00:00:37.006Z,8.50
2018-03-31T00:03:03.782Z,7.35
2018-03-31T00:05:29.809Z,6.90
2018-03-31T00:07:56.583Z,7.18
2018-03-31T00:10:22.618Z,4.65
2018-03-31T00:12:48.663Z,3.58
2018-03-31T00:15:14.691Z,4.37
2018-03-31T00:17:40.734Z,5.62
2018-03-31T00:20:06.770Z,4.55
2018-03-31T00:22:32.847Z,5.82
2018-03-31T00:24:58.885Z,5.68
2018-03-31T00:27:24.936Z,4.62
2018-03-31T00:29:51.731Z,5.55
2018-03-31T00:32:17.770Z,7.20
2018-03-31T00:34:43.812Z,5.10
2018-03-31T00:37:09.843Z,6.18
2018-03-31T00:39:35.890Z,4.32
2018-03-31T00:42:01.935Z,4.95
2018-03-31T00:44:27.968Z,6.05
2018-03-31T00:46:54.760Z,5.20
2018-03-31T00:49:21.529Z,4.30
2018-03-31T00:51:47.595Z,5.72
2018-03-31T00:54:13.622Z,4.72
2018-03-31T00:56:39.667Z,3.70
2018-03-31T00:59:05.694Z,7.55
2018-03-31T01:01:31.706Z,5.47
2018-03-31T01:03:57.763Z,7.07
2018-03-31T01:06:23.792Z,5.00
2018-03-31T01:08:49.831Z,7.03
2018-03-31T01:11:15.872Z,7.07
2018-03-31T01:13:41.894Z,5.37
2018-03-31T01:16:07.947Z,7.00
2018-03-31T01:18:33.973Z,6.12
2018-03-31T01:21:00.022Z,6.70
2018-03-31T01:23:26.099Z,5.85
2018-03-31T01:25:52.125Z,6.85
2018-03-31T01:28:18.158Z,5.10
2018-03-31T01:30:44.185Z,4.45
2018-03-31T01:33:10.959Z,4.35
2018-03-31T01:35:36.991Z,5.05
2018-03-31T01:38:03.021Z,4.70
2018-03-31T01:40:29.053Z,3.35
2018-03-31T01:42:55.075Z,4.22
2018-03-31T01:45:21.167Z,3.12
2018-03-31T01:47:47.927Z,4.40
2018-03-31T01:50:13.951Z,3.97
2018-03-31T01:52:40.715Z,2.42
2018-03-31T01:55:06.741Z,3.30
2018-03-31T01:57:33.507Z,4.55
2018-03-31T01:59:59.533Z,4.35
2018-03-31T02:02:25.579Z,3.90
2018-03-31T02:04:51.604Z,3.35
2018-03-31T02:07:18.365Z,3.40
2018-03-31T02:09:44.399Z,4.00
2018-03-31T02:12:10.415Z,3.17
2018-03-31T02:14:37.188Z,3.50
2018-03-31T02:17:03.204Z,2.80
2018-03-31T02:19:29.997Z,4.28
2018-03-31T02:21:56.049Z,3.40
2018-03-31T02:24:22.108Z,4.43
2018-03-31T02:26:48.135Z,2.62
2018-03-31T02:29:14.186Z,4.80
2018-03-31T02:31:40.226Z,3.20
2018-03-31T02:34:07.022Z,2.58
2018-03-31T02:36:33.057Z,2.83
2018-03-31T02:38:59.075Z,3.62
2018-03-31T02:41:25.831Z,2.90
2018-03-31T02:43:51.867Z,2.75
2018-03-31T02:46:17.959Z,5.00
2018-03-31T02:48:44.020Z,2.58
2018-03-31T02:51:10.789Z,2.35
2018-03-31T02:53:37.577Z,2.67
2018-03-31T02:56:03.615Z,3.20
2018-03-31T02:58:29.645Z,6.68
2018-03-31T03:00:55.677Z,2.92
2018-03-31T03:03:21.704Z,3.37
2018-03-31T03:05:47.781Z,2.53
2018-03-31T03:08:13.807Z,2.28
2018-03-31T03:10:39.836Z,3.25
2018-03-31T03:13:05.866Z,2.17
2018-03-31T03:15:31.911Z,2.15
2018-03-31T03:17:57.960Z,2.20
2018-03-31T03:20:23.983Z,1.58
2018-03-31T03:22:50.000Z,1.45
2018-03-31T03:25:16.056Z,3.67
2018-03-31T03:27:42.080Z,1.55
2018-03-31T03:30:08.121Z,1.75
2018-03-31T03:32:34.146Z,1.92
2018-03-31T03:35:00.182Z,1.48
2018-03-31T03:37:26.214Z,1.60
2018-03-31T03:39:52.262Z,1.77
2018-03-31T03:42:18.304Z,1.90
2018-03-31T03:44:44.325Z,4.10
2018-03-31T03:47:10.408Z,1.85
2018-03-31T03:49:36.433Z,2.00
2018-03-31T03:52:02.504Z,1.87
2018-03-31T03:54:28.533Z,1.70
2018-03-31T03:56:55.313Z,1.73
2018-03-31T03:59:21.338Z,1.85
2018-03-31T04:01:47.364Z,1.83
2018-03-31T04:04:13.395Z,2.58
2018-03-31T04:06:39.434Z,2.08
2018-03-31T04:09:06.217Z,2.03
2018-03-31T04:11:32.267Z,2.00
2018-03-31T04:13:58.329Z,2.85
2018-03-31T04:16:24.359Z,6.20
2018-03-31T04:18:50.377Z,2.37
2018-03-31T04:21:16.417Z,1.45
2018-03-31T04:23:42.449Z,1.62
2018-03-31T04:26:08.490Z,1.75
2018-03-31T04:28:34.538Z,1.52
2018-03-31T04:31:00.558Z,1.77
2018-03-31T04:33:26.609Z,1.20
2018-03-31T04:35:52.628Z,1.60
2018-03-31T04:38:18.658Z,2.00
2018-03-31T04:40:44.687Z,1.48
2018-03-31T04:43:10.711Z,1.40
2018-03-31T04:45:36.791Z,1.52
2018-03-31T04:48:02.811Z,3.80
2018-03-31T04:50:28.859Z,1.58
2018-03-31T04:52:54.914Z,2.30
2018-03-31T04:55:21.691Z,2.20
2018-03-31T04:57:47.733Z,2.45
2018-03-31T05:00:13.766Z,1.65
2018-03-31T05:02:39.840Z,1.10
2018-03-31T05:05:05.899Z,1.60
2018-03-31T05:07:31.911Z,1.23
2018-03-31T05:09:57.940Z,0.93
2018-03-31T05:12:23.988Z,2.00
2018-03-31T05:14:50.050Z,1.00
2018-03-31T05:17:16.838Z,0.80
2018-03-31T05:19:42.928Z,0.80
2018-03-31T05:22:08.954Z,1.48
2018-03-31T05:24:34.984Z,0.77
2018-03-31T05:27:01.026Z,1.15
2018-03-31T05:29:27.050Z,1.00
2018-03-31T05:31:53.114Z,1.30
2018-03-31T05:34:19.136Z,1.08
2018-03-31T05:36:45.223Z,2.55
2018-03-31T05:39:11.260Z,1.58
2018-03-31T05:41:37.308Z,1.30
2018-03-31T05:44:03.332Z,1.83
2018-03-31T05:46:29.407Z,1.25
2018-03-31T05:48:55.449Z,4.25
2018-03-31T05:51:21.489Z,4.47
2018-03-31T05:53:47.541Z,1.67
2018-03-31T05:56:13.572Z,1.20
2018-03-31T05:58:39.632Z,2.47
2018-03-31T06:01:06.403Z,5.43
2018-03-31T06:03:32.520Z,1.50
2018-03-31T06:05:58.519Z,2.00
2018-03-31T06:08:24.539Z,5.35
2018-03-31T06:10:51.330Z,4.07
2018-03-31T06:13:18.131Z,1.58
2018-03-31T06:15:44.159Z,1.23
2018-03-31T06:18:10.214Z,1.05
2018-03-31T06:20:36.252Z,0.95
2018-03-31T06:23:02.301Z,1.58
2018-03-31T06:25:28.339Z,2.72
2018-03-31T06:27:54.381Z,1.12
2018-03-31T06:30:20.427Z,1.10
2018-03-31T06:32:46.451Z,1.05
2018-03-31T06:35:12.497Z,1.00
2018-03-31T06:37:38.551Z,1.15
2018-03-31T06:40:05.347Z,1.10
2018-03-31T06:42:31.383Z,2.35
2018-03-31T06:44:57.449Z,1.10
2018-03-31T06:47:23.489Z,1.77
2018-03-31T06:49:49.550Z,1.35
2018-03-31T06:52:16.338Z,2.55
2018-03-31T06:54:42.417Z,1.87
2018-03-31T06:57:08.434Z,2.05
2018-03-31T06:59:34.471Z,1.85
2018-03-31T07:02:00.536Z,1.70
2018-03-31T07:04:26.573Z,5.95
2018-03-31T07:06:52.809Z,1.30
2018-03-31T07:09:18.845Z,1.62
2018-03-31T07:11:44.859Z,1.20
2018-03-31T07:14:11.643Z,1.50
2018-03-31T07:16:38.414Z,1.48
2018-03-31T07:19:04.451Z,1.40
2018-03-31T07:21:30.481Z,1.05
2018-03-31T07:23:56.556Z,3.00
2018-03-31T07:26:22.601Z,1.73
2018-03-31T07:28:48.622Z,1.73
2018-03-31T07:31:14.675Z,1.40
2018-03-31T07:33:40.694Z,1.60
2018-03-31T07:36:06.771Z,2.22
2018-03-31T07:38:32.822Z,2.33
2018-03-31T07:40:59.616Z,3.92
2018-03-31T07:43:25.632Z,1.77
2018-03-31T07:45:51.667Z,1.77
2018-03-31T07:48:18.580Z,1.40
2018-03-31T07:50:44.626Z,1.40
2018-03-31T07:53:10.671Z,1.20
2018-03-31T07:55:37.444Z,1.50
2018-03-31T07:58:03.492Z,1.62
2018-03-31T08:00:29.514Z,1.50
2018-03-31T08:02:55.553Z,2.95
2018-03-31T08:05:21.627Z,1.70
2018-03-31T08:07:47.656Z,1.40
2018-03-31T08:10:13.708Z,1.52
2018-03-31T08:12:39.760Z,1.48
2018-03-31T08:15:05.778Z,1.25
2018-03-31T08:17:31.816Z,1.52
2018-03-31T08:19:59.330Z,2.30
2018-03-31T08:22:26.127Z,2.42
2018-03-31T08:24:52.164Z,1.95
2018-03-31T08:27:18.192Z,3.40
2018-03-31T08:29:44.230Z,1.40
2018-03-31T08:32:10.283Z,2.08
2018-03-31T08:34:36.324Z,1.45
2018-03-31T08:37:02.351Z,1.73
2018-03-31T08:39:28.392Z,1.90
2018-03-31T08:41:54.411Z,1.77
2018-03-31T08:44:20.477Z,3.95
2018-03-31T08:46:46.613Z,1.98
2018-03-31T08:49:12.633Z,2.85
2018-03-31T08:51:38.675Z,1.87
2018-03-31T08:54:04.726Z,2.00
2018-03-31T08:56:30.776Z,2.20
2018-03-31T08:58:57.537Z,3.65
2018-03-31T09:01:24.368Z,2.30
2018-03-31T09:03:50.443Z,3.40
2018-03-31T09:06:16.437Z,2.42
2018-03-31T09:08:42.468Z,3.75
2018-03-31T09:11:08.510Z,3.58
2018-03-31T09:13:34.588Z,2.67
2018-03-31T09:16:00.651Z,3.15
2018-03-31T09:18:26.673Z,2.90
2018-03-31T09:20:52.737Z,4.10
2018-03-31T09:23:18.780Z,3.67
2018-03-31T09:25:44.840Z,2.67
2018-03-31T09:28:11.602Z,2.35
2018-03-31T09:30:38.403Z,2.37
2018-03-31T09:33:04.431Z,2.45
2018-03-31T09:35:30.471Z,1.83
2018-03-31T09:37:56.519Z,4.12
2018-03-31T09:40:22.552Z,2.40
2018-03-31T09:42:48.575Z,2.10
2018-03-31T09:45:14.602Z,2.33
2018-03-31T09:47:40.673Z,5.15
2018-03-31T09:50:06.703Z,2.12
2018-03-31T09:52:32.768Z,2.55
2018-03-31T09:54:59.562Z,1.40
2018-03-31T09:57:25.586Z,2.00
2018-03-31T09:59:51.638Z,2.40
2018-03-31T10:02:17.694Z,1.80
2018-03-31T10:04:44.493Z,2.75
2018-03-31T10:07:11.277Z,2.00
2018-03-31T10:09:37.312Z,2.83
2018-03-31T10:12:03.356Z,2.45
2018-03-31T10:14:29.390Z,3.97
2018-03-31T10:16:55.419Z,2.67
2018-03-31T10:19:21.456Z,2.33
2018-03-31T10:21:47.470Z,2.50
2018-03-31T10:24:13.523Z,2.20
2018-03-31T10:26:39.568Z,1.80
2018-03-31T10:29:05.622Z,2.10
2018-03-31T10:31:31.656Z,3.60
2018-03-31T10:33:57.695Z,2.40
2018-03-31T10:36:23.772Z,2.00
2018-03-31T10:38:49.786Z,1.70
2018-03-31T10:41:15.836Z,2.95
2018-03-31T10:43:42.628Z,2.45
2018-03-31T10:46:08.716Z,1.90
2018-03-31T10:48:34.759Z,1.58
2018-03-31T10:51:00.812Z,1.90
2018-03-31T10:53:27.620Z,1.75
2018-03-31T10:55:53.647Z,2.60
2018-03-31T10:58:19.716Z,2.35
2018-03-31T11:00:45.739Z,1.77
2018-03-31T11:03:11.799Z,2.50
2018-03-31T11:05:38.573Z,1.75
2018-03-31T11:08:04.596Z,4.35
2018-03-31T11:10:31.385Z,2.78
2018-03-31T11:12:57.416Z,2.15
2018-03-31T11:15:23.470Z,1.90
2018-03-31T11:17:49.514Z,2.20
2018-03-31T11:20:15.557Z,4.80
2018-03-31T11:22:41.609Z,2.05
2018-03-31T11:25:07.643Z,2.30
2018-03-31T11:27:33.701Z,1.92
2018-03-31T11:30:00.487Z,5.65
2018-03-31T11:32:26.524Z,2.20
2018-03-31T11:34:52.583Z,3.58
2018-03-31T11:37:18.623Z,3.92
2018-03-31T11:39:44.659Z,2.53
2018-03-31T11:42:10.715Z,2.97
2018-03-31T11:44:37.522Z,2.85
2018-03-31T11:47:03.593Z,2.58
2018-03-31T11:49:29.628Z,2.45
2018-03-31T11:51:55.705Z,2.95
2018-03-31T11:54:21.745Z,4.68
2018-03-31T11:56:47.791Z,5.35
2018-03-31T11:59:13.850Z,7.82
2018-03-31T12:01:39.950Z,4.20
2018-03-31T12:04:05.992Z,2.53
2018-03-31T12:06:32.069Z,2.75
2018-03-31T12:08:58.115Z,2.75
2018-03-31T12:11:24.165Z,2.92
2018-03-31T12:13:50.212Z,2.60
2018-03-31T12:16:16.996Z,3.03
2018-03-31T12:18:43.062Z,3.05
2018-03-31T12:21:09.098Z,2.90
2018-03-31T12:23:35.112Z,3.20
2018-03-31T12:26:01.166Z,2.62
2018-03-31T12:28:27.196Z,3.40
2018-03-31T12:30:53.988Z,2.87
2018-03-31T12:33:20.821Z,3.35
2018-03-31T12:35:47.647Z,2.80
2018-03-31T12:38:13.675Z,2.85
2018-03-31T12:40:39.725Z,5.50
2018-03-31T12:43:05.766Z,4.25
2018-03-31T12:45:31.832Z,5.18
2018-03-31T12:47:57.895Z,3.75
2018-03-31T12:50:24.686Z,4.18
2018-03-31T12:52:50.732Z,6.28
2018-03-31T12:55:16.792Z,3.62
2018-03-31T12:57:42.826Z,4.50
2018-03-31T13:00:08.888Z,10.15
2018-03-31T13:02:35.663Z,35.70
2018-03-31T13:05:01.728Z,25.90
2018-03-31T13:07:27.791Z,6.07
2018-03-31T13:09:53.838Z,3.42
2018-03-31T13:12:19.872Z,5.65
2018-03-31T13:14:45.960Z,6.62
2018-03-31T13:17:12.028Z,5.40
2018-03-31T13:19:38.104Z,5.78
2018-03-31T13:22:04.867Z,5.20
2018-03-31T13:24:30.904Z,5.30
2018-03-31T13:26:56.934Z,7.87
2018-03-31T13:29:23.737Z,7.40
2018-03-31T13:31:50.520Z,5.15
2018-03-31T13:34:17.329Z,4.47
2018-03-31T13:36:43.378Z,4.57
2018-03-31T13:39:09.454Z,4.95
2018-03-31T13:41:36.252Z,6.15
2018-03-31T13:44:02.287Z,6.05
2018-03-31T13:46:28.381Z,6.10
2018-03-31T13:48:55.154Z,6.00
2018-03-31T13:51:21.184Z,5.07
2018-03-31T13:53:47.232Z,6.32
2018-03-31T13:56:13.263Z,5.50
2018-03-31T13:58:39.316Z,5.53
2018-03-31T14:01:05.349Z,7.35
2018-03-31T14:03:31.415Z,6.95
2018-03-31T14:05:57.451Z,7.07
2018-03-31T14:08:23.515Z,7.40
2018-03-31T14:10:50.297Z,5.55
2018-03-31T14:13:16.338Z,6.28
2018-03-31T14:15:42.393Z,6.50
2018-03-31T14:18:08.437Z,6.43
2018-03-31T14:20:34.505Z,6.12
2018-03-31T14:23:00.634Z,6.32
2018-03-31T14:25:26.627Z,6.45
2018-03-31T14:27:52.673Z,5.28
2018-03-31T14:30:18.726Z,6.67
2018-03-31T14:32:45.520Z,5.77
2018-03-31T14:35:11.569Z,7.80
2018-03-31T14:37:37.681Z,6.50
2018-03-31T14:40:04.477Z,5.97
2018-03-31T14:42:30.530Z,6.93
2018-03-31T14:44:56.580Z,6.20
2018-03-31T14:47:22.641Z,6.57
2018-03-31T14:49:49.439Z,6.33
2018-03-31T14:52:15.476Z,5.80
2018-03-31T14:54:41.525Z,5.27
2018-03-31T14:57:07.559Z,4.37
2018-03-31T14:59:33.597Z,8.57
2018-03-31T15:01:59.698Z,8.07
2018-03-31T15:04:25.766Z,6.50
2018-03-31T15:06:51.831Z,6.70
2018-03-31T15:09:17.862Z,6.13
2018-03-31T15:11:43.996Z,5.40
2018-03-31T15:14:10.060Z,6.07
2018-03-31T15:16:36.854Z,6.68
2018-03-31T15:19:03.736Z,7.00
2018-03-31T15:21:29.768Z,8.10
2018-03-31T15:26:28.554Z,7.00
2018-03-31T15:28:54.588Z,7.53
2018-03-31T15:31:20.656Z,6.87
2018-03-31T15:33:46.708Z,6.97
2018-03-31T15:36:12.791Z,5.80
2018-03-31T15:38:39.557Z,8.55
2018-03-31T15:41:05.598Z,7.37
2018-03-31T15:43:31.667Z,10.80
2018-03-31T15:45:58.565Z,6.95
2018-03-31T15:48:25.394Z,6.68
2018-03-31T15:50:51.435Z,7.68
2018-03-31T15:53:17.508Z,5.47
2018-03-31T15:55:43.575Z,8.20
2018-03-31T15:58:09.631Z,8.05
2018-03-31T16:00:35.704Z,6.27
2018-03-31T16:03:01.753Z,5.62
2018-03-31T16:05:27.787Z,7.45
2018-03-31T16:07:53.831Z,6.00
2018-03-31T16:10:19.889Z,4.97
2018-03-31T16:12:45.925Z,5.97
2018-03-31T16:15:11.983Z,7.55
2018-03-31T16:17:38.045Z,8.63
2018-03-31T16:20:04.823Z,6.93
2018-03-31T16:22:30.881Z,9.77
2018-03-31T16:24:56.906Z,6.40
2018-03-31T16:27:22.959Z,5.32
2018-03-31T16:29:49.012Z,9.02
2018-03-31T16:32:15.824Z,6.47
2018-03-31T16:34:41.863Z,9.18
2018-03-31T16:37:07.924Z,7.30
2018-03-31T16:39:33.971Z,7.03
2018-03-31T16:42:00.000Z,7.70
2018-03-31T16:44:26.055Z,9.80
2018-03-31T16:46:52.171Z,9.40
2018-03-31T16:49:18.201Z,11.80
2018-03-31T16:51:44.246Z,11.35
2018-03-31T16:54:10.268Z,20.40
2018-03-31T16:56:36.314Z,12.85
2018-03-31T16:59:02.348Z,14.82
2018-03-31T17:01:28.384Z,12.23
2018-03-31T17:03:54.468Z,14.65
2018-03-31T17:06:20.516Z,19.20
2018-03-31T17:08:47.308Z,17.30
2018-03-31T17:11:13.339Z,22.83
2018-03-31T17:13:39.383Z,24.50
2018-03-31T17:16:05.457Z,27.25
2018-03-31T17:18:31.530Z,15.32
2018-03-31T17:20:57.588Z,14.93
2018-03-31T17:23:23.630Z,11.43
2018-03-31T17:25:49.690Z,9.80
2018-03-31T17:28:15.728Z,10.73
2018-03-31T17:30:41.788Z,9.35
2018-03-31T17:33:08.588Z,8.45
2018-03-31T17:35:34.647Z,8.88
2018-03-31T17:38:00.697Z,10.40
2018-03-31T17:40:26.757Z,11.60
2018-03-31T17:42:52.878Z,9.68
2018-03-31T17:45:18.916Z,12.85
2018-03-31T17:47:45.748Z,13.57
2018-03-31T17:50:11.791Z,15.05
2018-03-31T17:52:37.832Z,13.32
2018-03-31T17:55:03.935Z,14.85
2018-03-31T17:57:29.972Z,13.27
2018-03-31T17:59:56.030Z,11.98
2018-03-31T18:02:22.119Z,18.75
2018-03-31T18:04:48.208Z,13.52
2018-03-31T18:07:14.301Z,15.68
2018-03-31T18:09:40.377Z,12.70
2018-03-31T18:12:06.456Z,20.85
2018-03-31T18:14:33.233Z,12.23
2018-03-31T18:16:59.298Z,9.82
2018-03-31T18:19:25.350Z,14.48
2018-03-31T18:21:51.448Z,17.48
2018-03-31T18:24:17.505Z,14.05
2018-03-31T18:26:43.558Z,14.25
2018-03-31T18:29:09.622Z,14.80
2018-03-31T18:31:36.408Z,16.77
2018-03-31T18:34:02.471Z,15.73
2018-03-31T18:36:28.519Z,13.23
2018-03-31T18:38:54.606Z,12.98
2018-03-31T18:41:20.667Z,14.38
2018-03-31T18:43:46.703Z,12.77
2018-03-31T18:46:13.532Z,17.00
2018-03-31T18:48:39.581Z,14.38
2018-03-31T18:51:05.667Z,15.45
2018-03-31T18:53:31.732Z,14.87
2018-03-31T18:55:57.788Z,13.02
2018-03-31T18:58:23.845Z,16.70
2018-03-31T19:00:49.915Z,17.12
2018-03-31T19:03:16.750Z,14.73
2018-03-31T19:05:42.834Z,16.20
2018-03-31T19:08:09.118Z,15.55
2018-03-31T19:10:35.203Z,19.77
2018-03-31T19:13:01.324Z,15.48
2018-03-31T19:15:28.282Z,16.83
2018-03-31T19:17:54.527Z,15.65
2018-03-31T19:20:21.364Z,18.95
2018-03-31T19:22:47.426Z,16.27
2018-03-31T19:25:20.270Z,19.77
2018-03-31T19:27:46.367Z,16.75
2018-03-31T19:30:12.431Z,17.75
2018-03-31T19:32:40.453Z,18.23
2018-03-31T19:35:07.354Z,25.20
2018-03-31T19:37:33.429Z,18.23
2018-03-31T19:39:59.522Z,17.62
2018-03-31T19:42:25.602Z,18.90
2018-03-31T19:44:51.652Z,19.08
2018-03-31T19:47:17.904Z,18.17
2018-03-31T19:49:44.317Z,19.58
2018-03-31T19:52:10.932Z,18.98
2018-03-31T19:54:37.138Z,19.83
2018-03-31T19:57:03.939Z,16.52
2018-03-31T19:59:31.224Z,16.08
2018-03-31T20:01:57.506Z,19.20
2018-03-31T20:04:23.778Z,19.95
2018-03-31T20:06:50.614Z,21.90
2018-03-31T20:09:17.733Z,21.25
2018-03-31T20:11:43.840Z,16.62
2018-03-31T20:14:10.970Z,21.33
2018-03-31T20:16:37.948Z,18.90
2018-03-31T20:19:04.052Z,19.37
2018-03-31T20:21:31.927Z,15.85
2018-03-31T20:23:58.207Z,13.45
2018-03-31T20:26:24.263Z,15.82
2018-03-31T20:28:51.362Z,13.82
2018-03-31T20:31:17.574Z,17.87
2018-03-31T20:33:43.657Z,15.68
2018-03-31T20:36:10.669Z,15.43
2018-03-31T20:38:36.872Z,20.95
2018-03-31T20:41:03.217Z,14.80
2018-03-31T20:43:30.026Z,13.88
2018-03-31T20:45:56.167Z,16.27
2018-03-31T20:48:22.243Z,16.27
2018-03-31T20:50:48.890Z,17.45
2018-03-31T20:53:15.879Z,15.60
2018-03-31T20:55:41.972Z,17.70
2018-03-31T20:58:09.687Z,17.60
2018-03-31T21:00:35.945Z,17.92
2018-03-31T21:03:01.997Z,17.33
2018-03-31T21:05:28.068Z,15.55
2018-03-31T21:07:54.143Z,17.10
2018-03-31T21:10:20.253Z,13.90
2018-03-31T21:12:46.291Z,18.73
2018-03-31T21:15:12.347Z,25.50
2018-03-31T21:17:38.453Z,15.80
2018-03-31T21:20:04.492Z,17.58
2018-03-31T21:22:30.569Z,19.98
2018-03-31T21:24:56.626Z,19.02
2018-03-31T21:27:22.683Z,18.87
2018-03-31T21:29:49.485Z,17.80
2018-03-31T21:32:15.536Z,16.55
2018-03-31T21:34:41.611Z,19.05
2018-03-31T21:37:08.420Z,16.12
2018-03-31T21:39:34.468Z,20.40
2018-03-31T21:42:00.516Z,18.45
2018-03-31T21:44:26.556Z,21.77
2018-03-31T21:46:52.698Z,19.20
2018-03-31T21:49:18.759Z,21.33
2018-03-31T21:51:44.796Z,17.17
2018-03-31T21:54:10.846Z,20.52
2018-03-31T21:56:36.892Z,18.30
2018-03-31T21:59:02.955Z,21.00
2018-03-31T22:01:29.032Z,18.98
2018-03-31T22:03:55.828Z,18.75
2018-03-31T22:06:21.882Z,14.95
2018-03-31T22:08:47.916Z,25.35
2018-03-31T22:11:14.725Z,18.58
2018-03-31T22:13:46.729Z,21.80
2018-03-31T22:16:12.782Z,17.90
2018-03-31T22:18:38.826Z,21.73
2018-03-31T22:21:04.874Z,20.02
2018-03-31T22:23:30.951Z,19.08
2018-03-31T22:25:57.539Z,23.15
2018-03-31T22:28:23.566Z,21.05
2018-03-31T22:30:49.601Z,18.87
2018-03-31T22:33:15.650Z,22.45
2018-03-31T22:35:42.183Z,21.65
2018-03-31T22:38:08.229Z,20.35
2018-03-31T22:40:34.275Z,24.87
2018-03-31T22:43:00.300Z,21.10
2018-03-31T22:45:26.376Z,20.80
2018-03-31T22:47:53.152Z,23.45
2018-03-31T22:50:19.209Z,20.60
2018-03-31T22:52:45.227Z,18.12
2018-03-31T22:55:11.276Z,20.50
2018-03-31T22:57:37.302Z,21.08
2018-03-31T23:00:03.359Z,21.33
2018-03-31T23:02:29.389Z,20.73
2018-03-31T23:04:55.437Z,21.87
2018-03-31T23:07:21.485Z,22.95
2018-03-31T23:09:48.279Z,20.40
2018-03-31T23:12:14.863Z,20.92
2018-03-31T23:14:40.899Z,18.60
2018-03-31T23:17:06.959Z,23.45
2018-03-31T23:19:33.019Z,21.58
2018-03-31T23:21:59.791Z,21.05
2018-03-31T23:24:26.571Z,24.05
2018-03-31T23:26:52.601Z,21.75
2018-03-31T23:29:18.648Z,22.05
2018-03-31T23:31:44.688Z,22.08
2018-03-31T23:34:10.735Z,20.37
2018-03-31T23:36:36.813Z,23.30
2018-03-31T23:39:02.858Z,22.42
2018-03-31T23:41:29.639Z,19.23
2018-03-31T23:43:55.676Z,20.35
2018-03-31T23:46:21.775Z,21.95
2018-03-31T23:48:48.540Z,21.45
2018-03-31T23:51:15.314Z,19.35
2018-03-31T23:53:41.332Z,24.27
2018-03-31T23:56:07.368Z,21.27
2018-03-31T23:58:33.396Z,23.45
